Ubc Bremen — P3ZA7 — position and weather

sailwx.info

Track history (hours):
 
Tides and Currents Weather Stations Pressure Air Temp Water Temp Dewpoint Dewpoint Depression Visibility Wind Speed Wind Dir Waves Ship Positions

Ubc Bremen

Last reported at 2016-Jan-25 01:07 UTC. Time now 2016-Feb-07 17:20 UTC.
Position N 35°58' W 005°36'.
Warning: this ship's position is 13 days out of date.

Length 154 m; draft 8.8 m.

Type: Cargo ship. MMSI: 21260200.

Date/timePositionNaut miles runAvg speedWind from/ knotsBaromVisibWave heightAir tempDewpointWater temp
2016-Jan-25 01:07N 35°58' W 005°36'713.1
2016-Jan-25 00:33N 36°00' W 005°27'9 8.7
2016-Jan-24 23:33N 36°08' W 005°22'0 0.1
2016-Jan-24 22:32N 36°08' W 005°22'0 0.0
2016-Jan-24 21:08N 36°08' W 005°22'0 0.0
2016-Jan-24 19:11N 36°08' W 005°22'0 0.0
2016-Jan-24 18:32N 36°08' W 005°22'0 0.0
2016-Jan-24 17:05N 36°08' W 005°22'0 0.0
2016-Jan-24 16:21N 36°08' W 005°22'0 0.0
2016-Jan-24 15:18N 36°08' W 005°22'0 0.1
2016-Jan-24 14:28N 36°08' W 005°22'3 3.2
2016-Jan-24 13:33N 36°05' W 005°22'6 5.5
2016-Jan-24 12:33N 36°05' W 005°15'12412.3
2016-Jan-24 02:28N 36°21' W 002°43'1312.3
2016-Jan-24 01:26N 36°23' W 002°27'77 4.3
2016-Jan-23 07:33N 37°13' W 001°14'1414.0
2016-Jan-23 06:33N 37°14' W 000°56'1414.2
2016-Jan-23 05:34N 37°15' W 000°39'1414.4
2016-Jan-23 04:33N 37°16' W 000°21'1414.4
2016-Jan-23 03:33N 37°17' W 000°03'1714.6
2016-Jan-23 02:23N 37°18' E 000°19'1214.3
2016-Jan-23 01:33N 37°19' E 000°34'1414.4
2016-Jan-23 00:33N 37°19' E 000°52'62013.5
2016-Jan-21 02:33N 36°37' E 013°46'1414.0
2016-Jan-21 01:34N 36°33' E 014°03'1514.1
2016-Jan-21 00:31N 36°28' E 014°20'1413.8
2016-Jan-20 23:33N 36°25' E 014°36'44011.6
2016-Jan-19 09:33N 37°27' E 023°42'1413.4
2016-Jan-19 08:33N 37°40' E 023°42'1313.2
2016-Jan-19 07:33N 37°52' E 023°37'6 5.6
2016-Jan-19 06:33N 37°58' E 023°34'0 0.0
2016-Jan-19 05:29N 37°58' E 023°34'0 0.0
2016-Jan-19 04:33N 37°58' E 023°34'0 0.0
2016-Jan-19 03:29N 37°58' E 023°34'0 0.0
2016-Jan-19 02:31N 37°58' E 023°34'0 0.0
2016-Jan-19 01:33N 37°58' E 023°34'0 0.0
2016-Jan-19 00:29N 37°58' E 023°34'0 0.0
2016-Jan-18 23:32N 37°58' E 023°34'0 0.0
2016-Jan-18 22:27N 37°58' E 023°34'0 0.0
2016-Jan-18 21:30N 37°58' E 023°34'0 0.0
2016-Jan-18 20:32N 37°58' E 023°34'0 0.0
2016-Jan-18 19:28N 37°58' E 023°34'0 0.0
2016-Jan-18 18:31N 37°58' E 023°34'0 0.0
2016-Jan-18 17:33N 37°58' E 023°34'0 0.0
2016-Jan-18 16:28N 37°58' E 023°34'0 0.0
2016-Jan-18 15:31N 37°58' E 023°34'0 0.0
2016-Jan-18 14:33N 37°58' E 023°34'0 0.0
2016-Jan-18 13:33N 37°58' E 023°34'0 0.0
2016-Jan-18 12:33N 37°58' E 023°34'0 0.0
2016-Jan-18 11:29N 37°58' E 023°34'0 0.0
2016-Jan-18 10:33N 37°58' E 023°34'0 0.0
2016-Jan-18 09:34N 37°58' E 023°34'0 0.0
2016-Jan-18 08:32N 37°58' E 023°34'0 0.0
2016-Jan-18 07:33N 37°58' E 023°34'0 0.0
2016-Jan-18 06:30N 37°58' E 023°34'0 0.0
2016-Jan-18 05:25N 37°58' E 023°34'0 0.0
2016-Jan-18 04:28N 37°58' E 023°34'0 0.0
2016-Jan-18 03:30N 37°58' E 023°34'0 0.0
2016-Jan-18 02:33N 37°58' E 023°34'0 0.0
2016-Jan-18 01:28N 37°58' E 023°34'0 0.0
2016-Jan-18 00:31N 37°58' E 023°34'0 0.0
2016-Jan-17 23:34N 37°58' E 023°34'0 0.0
2016-Jan-17 22:29N 37°58' E 023°34'0 0.0
2016-Jan-17 21:31N 37°58' E 023°34'0 0.0
2016-Jan-17 20:33N 37°58' E 023°34'0 0.0
2016-Jan-17 19:28N 37°58' E 023°34'0 0.0
2016-Jan-17 18:32N 37°58' E 023°34'0 0.0
2016-Jan-17 17:28N 37°58' E 023°34'0 0.0
2016-Jan-17 16:30N 37°58' E 023°34'0 0.0
2016-Jan-17 15:33N 37°58' E 023°34'0 0.0
2016-Jan-17 14:28N 37°58' E 023°34'0 0.0
2016-Jan-17 13:31N 37°58' E 023°34'0 0.0
2016-Jan-17 12:34N 37°58' E 023°34'0 0.0
2016-Jan-17 11:29N 37°58' E 023°34'0 0.0
2016-Jan-17 10:31N 37°58' E 023°34'0 0.0
2016-Jan-17 09:33N 37°58' E 023°34'0 0.0
2016-Jan-17 08:30N 37°58' E 023°34'0 0.0
2016-Jan-17 07:32N 37°58' E 023°34'0 0.0
2016-Jan-17 06:28N 37°58' E 023°34'0 0.0
2016-Jan-17 05:30N 37°58' E 023°34'0 0.0
2016-Jan-17 04:33N 37°58' E 023°34'0 0.0
2016-Jan-17 03:28N 37°58' E 023°34'0 0.0
2016-Jan-17 02:31N 37°58' E 023°34'0 0.0
2016-Jan-17 01:34N 37°58' E 023°34'0 0.0
2016-Jan-17 00:29N 37°58' E 023°34'0 0.0
2016-Jan-16 23:32N 37°58' E 023°34'0 0.0
2016-Jan-16 22:33N 37°58' E 023°34'0 0.0
2016-Jan-16 21:30N 37°58' E 023°34'0 0.0
2016-Jan-16 20:32N 37°58' E 023°34'0 0.0
2016-Jan-16 19:28N 37°58' E 023°34'0 0.0
2016-Jan-16 18:30N 37°58' E 023°34'0 0.0
2016-Jan-16 17:33N 37°58' E 023°34'0 0.0
2016-Jan-16 16:28N 37°58' E 023°34'0 0.0
2016-Jan-16 15:31N 37°58' E 023°34'0 0.0
2016-Jan-16 14:34N 37°58' E 023°34'0 0.0
2016-Jan-16 13:29N 37°58' E 023°34'0 0.0
2016-Jan-16 12:32N 37°58' E 023°34'0 0.0
2016-Jan-16 11:33N 37°58' E 023°34'0 0.0
2016-Jan-16 10:30N 37°58' E 023°34'0 0.0
2016-Jan-16 09:32N 37°58' E 023°34'0 0.0
2016-Jan-16 08:28N 37°58' E 023°34'0 0.0
2016-Jan-16 07:30N 37°58' E 023°34'0 0.0
2016-Jan-16 06:33N 37°58' E 023°34'0 0.0
2016-Jan-16 05:28N 37°58' E 023°34'0 0.0
2016-Jan-16 04:31N 37°58' E 023°34'0 0.0
2016-Jan-16 03:33N 37°58' E 023°34'0 0.0
2016-Jan-16 02:29N 37°58' E 023°34'0 0.0
2016-Jan-16 01:32N 37°58' E 023°34'0 0.0
2016-Jan-16 00:33N 37°58' E 023°34'0 0.0
2016-Jan-15 23:30N 37°58' E 023°34'0 0.0
2016-Jan-15 22:32N 37°58' E 023°34'0 0.0
2016-Jan-15 21:28N 37°58' E 023°34'0 0.0
2016-Jan-15 20:30N 37°58' E 023°34'0 0.0
2016-Jan-15 19:33N 37°58' E 023°34'0 0.0
2016-Jan-15 18:28N 37°58' E 023°34'0 0.0
2016-Jan-15 17:31N 37°58' E 023°34'0 0.0
2016-Jan-15 16:33N 37°58' E 023°34'0 0.0
2016-Jan-15 15:29N 37°58' E 023°34'0 0.0
2016-Jan-15 14:32N 37°58' E 023°34'0 0.0
2016-Jan-15 13:33N 37°58' E 023°34'0 0.0
2016-Jan-15 12:30N 37°58' E 023°34'0 0.0
2016-Jan-15 11:32N 37°58' E 023°34'0 0.0
2016-Jan-15 10:28N 37°58' E 023°34'0 0.0
2016-Jan-15 09:30N 37°58' E 023°34'0 0.0
2016-Jan-15 08:33N 37°58' E 023°34'0 0.0
2016-Jan-15 07:28N 37°58' E 023°34'0 0.0
2016-Jan-15 06:31N 37°58' E 023°34'0 0.0
2016-Jan-15 05:33N 37°58' E 023°34'0 0.0
2016-Jan-15 04:29N 37°58' E 023°34'0 0.0
2016-Jan-15 03:32N 37°58' E 023°34'0 0.0
2016-Jan-15 02:33N 37°58' E 023°34'0 0.0
2016-Jan-15 01:30N 37°58' E 023°34'  
Track history (hours):
 
Tides and Currents Weather Stations Pressure Air Temp Water Temp Dewpoint Dewpoint Depression Visibility Wind Speed Wind Dir Waves Ship Positions

Ubc Bremen

Last reported at 2016-Jan-25 01:07 UTC. Time now 2016-Feb-07 17:20 UTC.
Position N 35°58' W 005°36'.
Warning: this ship's position is 13 days out of date.

Length 154 m; draft 8.8 m.

Type: Cargo ship. MMSI: 21260200.

Date/timePositionNaut miles runAvg speedWind from/ knotsBaromVisibWave heightAir tempDewpointWater temp
2016-Jan-25 01:07N 35°58' W 005°36'713.1
2016-Jan-25 00:33N 36°00' W 005°27'9 8.7
2016-Jan-24 23:33N 36°08' W 005°22'0 0.1
2016-Jan-24 22:32N 36°08' W 005°22'0 0.0
2016-Jan-24 21:08N 36°08' W 005°22'0 0.0
2016-Jan-24 19:11N 36°08' W 005°22'0 0.0
2016-Jan-24 18:32N 36°08' W 005°22'0 0.0
2016-Jan-24 17:05N 36°08' W 005°22'0 0.0
2016-Jan-24 16:21N 36°08' W 005°22'0 0.0
2016-Jan-24 15:18N 36°08' W 005°22'0 0.1
2016-Jan-24 14:28N 36°08' W 005°22'3 3.2
2016-Jan-24 13:33N 36°05' W 005°22'6 5.5
2016-Jan-24 12:33N 36°05' W 005°15'12412.3
2016-Jan-24 02:28N 36°21' W 002°43'1312.3
2016-Jan-24 01:26N 36°23' W 002°27'77 4.3
2016-Jan-23 07:33N 37°13' W 001°14'1414.0
2016-Jan-23 06:33N 37°14' W 000°56'1414.2
2016-Jan-23 05:34N 37°15' W 000°39'1414.4
2016-Jan-23 04:33N 37°16' W 000°21'1414.4
2016-Jan-23 03:33N 37°17' W 000°03'1714.6
2016-Jan-23 02:23N 37°18' E 000°19'1214.3
2016-Jan-23 01:33N 37°19' E 000°34'1414.4
2016-Jan-23 00:33N 37°19' E 000°52'62013.5
2016-Jan-21 02:33N 36°37' E 013°46'1414.0
2016-Jan-21 01:34N 36°33' E 014°03'1514.1
2016-Jan-21 00:31N 36°28' E 014°20'1413.8
2016-Jan-20 23:33N 36°25' E 014°36'44011.6
2016-Jan-19 09:33N 37°27' E 023°42'1413.4
2016-Jan-19 08:33N 37°40' E 023°42'1313.2
2016-Jan-19 07:33N 37°52' E 023°37'6 5.6
2016-Jan-19 06:33N 37°58' E 023°34'0 0.0
2016-Jan-19 05:29N 37°58' E 023°34'0 0.0
2016-Jan-19 04:33N 37°58' E 023°34'0 0.0
2016-Jan-19 03:29N 37°58' E 023°34'0 0.0
2016-Jan-19 02:31N 37°58' E 023°34'0 0.0
2016-Jan-19 01:33N 37°58' E 023°34'0 0.0
2016-Jan-19 00:29N 37°58' E 023°34'0 0.0
2016-Jan-18 23:32N 37°58' E 023°34'0 0.0
2016-Jan-18 22:27N 37°58' E 023°34'0 0.0
2016-Jan-18 21:30N 37°58' E 023°34'0 0.0
2016-Jan-18 20:32N 37°58' E 023°34'0 0.0
2016-Jan-18 19:28N 37°58' E 023°34'0 0.0
2016-Jan-18 18:31N 37°58' E 023°34'0 0.0
2016-Jan-18 17:33N 37°58' E 023°34'0 0.0
2016-Jan-18 16:28N 37°58' E 023°34'0 0.0
2016-Jan-18 15:31N 37°58' E 023°34'0 0.0
2016-Jan-18 14:33N 37°58' E 023°34'0 0.0
2016-Jan-18 13:33N 37°58' E 023°34'0 0.0
2016-Jan-18 12:33N 37°58' E 023°34'0 0.0
2016-Jan-18 11:29N 37°58' E 023°34'0 0.0
2016-Jan-18 10:33N 37°58' E 023°34'0 0.0
2016-Jan-18 09:34N 37°58' E 023°34'0 0.0
2016-Jan-18 08:32N 37°58' E 023°34'0 0.0
2016-Jan-18 07:33N 37°58' E 023°34'0 0.0
2016-Jan-18 06:30N 37°58' E 023°34'0 0.0
2016-Jan-18 05:25N 37°58' E 023°34'0 0.0
2016-Jan-18 04:28N 37°58' E 023°34'0 0.0
2016-Jan-18 03:30N 37°58' E 023°34'0 0.0
2016-Jan-18 02:33N 37°58' E 023°34'0 0.0
2016-Jan-18 01:28N 37°58' E 023°34'0 0.0
2016-Jan-18 00:31N 37°58' E 023°34'0 0.0
2016-Jan-17 23:34N 37°58' E 023°34'0 0.0
2016-Jan-17 22:29N 37°58' E 023°34'0 0.0
2016-Jan-17 21:31N 37°58' E 023°34'0 0.0
2016-Jan-17 20:33N 37°58' E 023°34'0 0.0
2016-Jan-17 19:28N 37°58' E 023°34'0 0.0
2016-Jan-17 18:32N 37°58' E 023°34'0 0.0
2016-Jan-17 17:28N 37°58' E 023°34'0 0.0
2016-Jan-17 16:30N 37°58' E 023°34'0 0.0
2016-Jan-17 15:33N 37°58' E 023°34'0 0.0
2016-Jan-17 14:28N 37°58' E 023°34'0 0.0
2016-Jan-17 13:31N 37°58' E 023°34'0 0.0
2016-Jan-17 12:34N 37°58' E 023°34'0 0.0
2016-Jan-17 11:29N 37°58' E 023°34'0 0.0
2016-Jan-17 10:31N 37°58' E 023°34'0 0.0
2016-Jan-17 09:33N 37°58' E 023°34'0 0.0
2016-Jan-17 08:30N 37°58' E 023°34'0 0.0
2016-Jan-17 07:32N 37°58' E 023°34'0 0.0
2016-Jan-17 06:28N 37°58' E 023°34'0 0.0
2016-Jan-17 05:30N 37°58' E 023°34'0 0.0
2016-Jan-17 04:33N 37°58' E 023°34'0 0.0
2016-Jan-17 03:28N 37°58' E 023°34'0 0.0
2016-Jan-17 02:31N 37°58' E 023°34'0 0.0
2016-Jan-17 01:34N 37°58' E 023°34'0 0.0
2016-Jan-17 00:29N 37°58' E 023°34'0 0.0
2016-Jan-16 23:32N 37°58' E 023°34'0 0.0
2016-Jan-16 22:33N 37°58' E 023°34'0 0.0
2016-Jan-16 21:30N 37°58' E 023°34'0 0.0
2016-Jan-16 20:32N 37°58' E 023°34'0 0.0
2016-Jan-16 19:28N 37°58' E 023°34'0 0.0
2016-Jan-16 18:30N 37°58' E 023°34'0 0.0
2016-Jan-16 17:33N 37°58' E 023°34'0 0.0
2016-Jan-16 16:28N 37°58' E 023°34'0 0.0
2016-Jan-16 15:31N 37°58' E 023°34'0 0.0
2016-Jan-16 14:34N 37°58' E 023°34'0 0.0
2016-Jan-16 13:29N 37°58' E 023°34'0 0.0
2016-Jan-16 12:32N 37°58' E 023°34'0 0.0
2016-Jan-16 11:33N 37°58' E 023°34'0 0.0
2016-Jan-16 10:30N 37°58' E 023°34'0 0.0
2016-Jan-16 09:32N 37°58' E 023°34'0 0.0
2016-Jan-16 08:28N 37°58' E 023°34'0 0.0
2016-Jan-16 07:30N 37°58' E 023°34'0 0.0
2016-Jan-16 06:33N 37°58' E 023°34'0 0.0
2016-Jan-16 05:28N 37°58' E 023°34'0 0.0
2016-Jan-16 04:31N 37°58' E 023°34'0 0.0
2016-Jan-16 03:33N 37°58' E 023°34'0 0.0
2016-Jan-16 02:29N 37°58' E 023°34'0 0.0
2016-Jan-16 01:32N 37°58' E 023°34'0 0.0
2016-Jan-16 00:33N 37°58' E 023°34'0 0.0
2016-Jan-15 23:30N 37°58' E 023°34'0 0.0
2016-Jan-15 22:32N 37°58' E 023°34'0 0.0
2016-Jan-15 21:28N 37°58' E 023°34'0 0.0
2016-Jan-15 20:30N 37°58' E 023°34'0 0.0
2016-Jan-15 19:33N 37°58' E 023°34'0 0.0
2016-Jan-15 18:28N 37°58' E 023°34'0 0.0
2016-Jan-15 17:31N 37°58' E 023°34'0 0.0
2016-Jan-15 16:33N 37°58' E 023°34'0 0.0
2016-Jan-15 15:29N 37°58' E 023°34'0 0.0
2016-Jan-15 14:32N 37°58' E 023°34'0 0.0
2016-Jan-15 13:33N 37°58' E 023°34'0 0.0
2016-Jan-15 12:30N 37°58' E 023°34'0 0.0
2016-Jan-15 11:32N 37°58' E 023°34'0 0.0
2016-Jan-15 10:28N 37°58' E 023°34'0 0.0
2016-Jan-15 09:30N 37°58' E 023°34'0 0.0
2016-Jan-15 08:33N 37°58' E 023°34'0 0.0
2016-Jan-15 07:28N 37°58' E 023°34'0 0.0
2016-Jan-15 06:31N 37°58' E 023°34'0 0.0
2016-Jan-15 05:33N 37°58' E 023°34'0 0.0
2016-Jan-15 04:29N 37°58' E 023°34'0 0.0
2016-Jan-15 03:32N 37°58' E 023°34'0 0.0
2016-Jan-15 02:33N 37°58' E 023°34'0 0.0
2016-Jan-15 01:30N 37°58' E 023°34'  

Dump ship's entire track history